Time;durP1;ratioP1;P1;durP2;ratioP2;P2;SDS_P1;SDS_P2;PMS_P1;PMS_P2;Temp;Humidity;BMP_temperature;BMP_pressure;BME280_temperature;BME280_humidity;BME280_pressure;Samples;Min_cycle;Max_cycle;Signal;HPM_P1;HPM_P2
2023/08/15 00:00:32;;;;;;;;;;;;;;;23.11;84.99;101085.44;4187257;28;20023;-69
2023/08/15 00:02:34;;;;;;;;;;;;;;;23.10;84.33;101081.00;4187674;28;20023;-69
2023/08/15 00:04:38;;;;;;;;;;;;;;;23.09;84.27;101088.44;4187806;28;20132;-68
2023/08/15 00:06:40;;;;;;;;;;;;;;;23.09;83.74;101085.69;4187243;28;20049;-69
2023/08/15 00:08:41;;;;;;;;;;;;;;;23.12;83.29;101089.81;4185990;28;20020;-69
2023/08/15 00:10:44;;;;;;;;;;;;;;;23.13;83.26;101080.50;4168778;28;20298;-69
2023/08/15 00:12:46;;;;;;;;;;;;;;;23.14;82.92;101069.22;4169397;28;20016;-69
2023/08/15 00:14:48;;;;;;;;;;;;;;;23.16;82.61;101072.53;4187514;28;20033;-69
2023/08/15 00:16:50;;;;;;;;;;;;;;;23.17;82.44;101054.13;4186771;28;20031;-69
2023/08/15 00:18:53;;;;;;;;;;;;;;;23.19;82.35;101040.91;4187301;28;20023;-69
2023/08/15 00:20:56;;;;;;;;;;;;;;;23.19;82.64;101014.19;4153311;28;19936;-69
2023/08/15 00:22:58;;;;;;;;;;;;;;;23.21;82.54;101016.69;4187489;28;20027;-69
2023/08/15 00:25:00;;;;;;;;;;;;;;;23.21;82.01;101067.13;4187049;28;20052;-69
2023/08/15 00:27:02;;;;;;;;;;;;;;;23.20;85.14;101238.22;4186702;28;20485;-69
2023/08/15 00:29:04;;;;;;;;;;;;;;;23.13;86.51;101281.59;4168912;28;20375;-69
2023/08/15 00:31:07;;;;;;;;;;;;;;;23.00;89.23;101267.03;4185357;28;20031;-69
2023/08/15 00:33:09;;;;;;;;;;;;;;;22.87;91.81;101261.84;4186370;28;20020;-69
2023/08/15 00:35:11;;;;;;;;;;;;;;;22.79;91.65;101242.94;4169923;28;19956;-69
2023/08/15 00:37:15;;;;;;;;;;;;;;;22.76;91.06;101202.97;4168833;28;20026;-69
2023/08/15 00:39:18;;;;;;;;;;;;;;;22.75;90.70;101153.66;4185831;28;20371;-69
2023/08/15 00:41:20;;;;;;;;;;;;;;;22.75;89.43;101129.72;4168280;28;20315;-69
2023/08/15 00:43:22;;;;;;;;;;;;;;;22.76;88.85;101072.72;4168296;28;20024;-69
2023/08/15 00:45:24;;;;;;;;;;;;;;;22.77;88.21;101053.19;4167797;28;20486;-69
2023/08/15 00:47:26;;;;;;;;;;;;;;;22.81;87.99;101072.81;4184137;28;20023;-69
2023/08/15 00:49:28;;;;;;;;;;;;;;;22.78;90.61;101104.44;4167827;28;20015;-69
2023/08/15 00:51:31;;;;;;;;;;;;;;;22.71;91.18;101128.56;4184645;28;20358;-69
2023/08/15 00:53:34;;;;;;;;;;;;;;;22.63;91.93;101131.69;4186244;28;20019;-69
2023/08/15 00:55:38;;;;;;;;;;;;;;;22.54;92.14;101139.53;4185987;28;19928;-69
2023/08/15 00:57:40;;;;;;;;;;;;;;;22.46;92.51;101145.41;4166938;28;20020;-69
2023/08/15 00:59:42;;;;;;;;;;;;;;;22.34;92.60;101128.97;4185676;28;20023;-69
2023/08/15 01:01:44;;;;;;;;;;;;;;;22.29;92.15;101140.69;4186333;28;20027;-69
2023/08/15 01:03:46;;;;;;;;;;;;;;;22.28;92.10;101127.19;4187266;28;20028;-70
2023/08/15 01:05:48;;;;;;;;;;;;;;;22.27;92.29;101115.34;4186624;28;20019;-70
2023/08/15 01:07:50;;;;;;;;;;;;;;;22.28;93.00;101111.50;4167205;28;20363;-70
2023/08/15 01:09:54;;;;;;;;;;;;;;;22.29;91.87;101101.34;4186250;28;20031;-69
2023/08/15 01:11:59;;;;;;;;;;;;;;;22.31;90.97;101097.28;4186808;28;20015;-69
2023/08/15 01:14:02;;;;;;;;;;;;;;;22.34;90.38;101103.41;4185746;28;20364;-69
2023/08/15 01:16:05;;;;;;;;;;;;;;;22.38;90.78;101099.03;4167709;28;19967;-69
2023/08/15 01:18:07;;;;;;;;;;;;;;;22.41;90.40;101104.88;4167378;28;20015;-69
2023/08/15 01:20:10;;;;;;;;;;;;;;;22.43;90.21;101085.38;4186035;28;20431;-69
2023/08/15 01:22:16;;;;;;;;;;;;;;;22.45;89.90;101083.22;4186063;28;20019;-69
2023/08/15 01:24:19;;;;;;;;;;;;;;;22.45;89.50;101081.28;4152446;28;20032;-69
2023/08/15 01:26:21;;;;;;;;;;;;;;;22.47;89.80;101067.28;4147573;28;20016;-69
2023/08/15 01:28:23;;;;;;;;;;;;;;;22.48;89.43;101067.03;4186381;28;20012;-69
2023/08/15 01:30:24;;;;;;;;;;;;;;;22.50;88.83;101061.28;4186180;28;20015;-69
2023/08/15 01:32:27;;;;;;;;;;;;;;;22.52;88.54;101061.03;4186321;28;20007;-69
2023/08/15 01:34:31;;;;;;;;;;;;;;;22.53;88.45;101059.97;4151424;28;20036;-69
2023/08/15 01:36:34;;;;;;;;;;;;;;;22.54;88.57;101054.22;4186478;28;19929;-69
2023/08/15 01:38:39;;;;;;;;;;;;;;;22.55;88.13;101057.78;4185297;28;20033;-69
2023/08/15 01:40:43;;;;;;;;;;;;;;;22.57;88.32;101061.13;4166038;28;20493;-69
2023/08/15 01:42:45;;;;;;;;;;;;;;;22.58;88.04;101062.78;4186315;28;20023;-69
2023/08/15 01:44:47;;;;;;;;;;;;;;;22.58;88.43;101057.28;4167908;28;20023;-69
2023/08/15 01:46:49;;;;;;;;;;;;;;;22.59;88.40;101053.47;4149300;28;20024;-71
2023/08/15 01:48:52;;;;;;;;;;;;;;;22.59;88.65;101046.03;4185244;28;20028;-69
2023/08/15 01:50:53;;;;;;;;;;;;;;;22.58;88.49;101029.75;4168366;28;20391;-69
2023/08/15 01:52:54;;;;;;;;;;;;;;;22.58;87.89;101033.34;4170427;28;20088;-70
2023/08/15 01:54:57;;;;;;;;;;;;;;;22.60;88.05;101031.19;4188992;28;20446;-69
2023/08/15 01:57:00;;;;;;;;;;;;;;;22.60;88.25;101028.44;4171573;28;19956;-69
2023/08/15 01:59:03;;;;;;;;;;;;;;;22.62;87.84;101020.75;4171020;28;20356;-69
2023/08/15 02:01:05;;;;;;;;;;;;;;;22.62;87.92;101026.25;4170167;28;20872;-69
2023/08/15 02:03:08;;;;;;;;;;;;;;;22.63;88.16;101025.19;4190071;28;20051;-69
2023/08/15 02:05:09;;;;;;;;;;;;;;;22.64;87.82;101017.75;4171175;28;20015;-69
2023/08/15 02:07:11;;;;;;;;;;;;;;;22.64;88.27;101010.31;4188922;28;20027;-69
2023/08/15 02:09:13;;;;;;;;;;;;;;;22.65;88.01;101011.19;4188351;28;20020;-69
2023/08/15 02:11:14;;;;;;;;;;;;;;;22.64;88.36;101002.06;4171699;28;20423;-69
2023/08/15 02:13:18;;;;;;;;;;;;;;;22.64;87.64;101004.81;4170697;28;19932;-69
2023/08/15 02:15:20;;;;;;;;;;;;;;;22.64;87.95;100996.56;4189480;28;20039;-69
2023/08/15 02:17:22;;;;;;;;;;;;;;;22.66;87.99;100990.81;4169738;28;19925;-69
2023/08/15 02:19:24;;;;;;;;;;;;;;;22.65;87.63;100981.72;4170361;28;20007;-70
2023/08/15 02:21:26;;;;;;;;;;;;;;;22.66;88.02;100988.03;4187813;28;20011;-68
2023/08/15 02:23:28;;;;;;;;;;;;;;;22.64;87.75;100980.03;4170751;28;20023;-68
2023/08/15 02:25:30;;;;;;;;;;;;;;;22.63;88.34;100978.41;4170498;28;20020;-69
2023/08/15 02:27:32;;;;;;;;;;;;;;;22.64;87.95;100981.97;4170719;28;20040;-69
2023/08/15 02:29:35;;;;;;;;;;;;;;;22.63;88.10;100980.28;4178149;28;20027;-69
2023/08/15 02:31:38;;;;;;;;;;;;;;;22.62;87.94;100973.97;4168773;28;20031;-70
2023/08/15 02:33:40;;;;;;;;;;;;;;;22.64;87.76;100977.28;4186589;28;20027;-70
2023/08/15 02:35:42;;;;;;;;;;;;;;;22.65;87.92;100967.13;4170748;28;20016;-70
2023/08/15 02:37:44;;;;;;;;;;;;;;;22.64;87.85;100963.53;4170607;28;19961;-70
2023/08/15 02:39:46;;;;;;;;;;;;;;;22.63;88.19;100969.28;4188048;28;20011;-70
2023/08/15 02:41:48;;;;;;;;;;;;;;;22.62;87.87;100962.13;4188649;28;20023;-70
2023/08/15 02:43:50;;;;;;;;;;;;;;;22.61;87.99;100964.03;4170599;28;20028;-70
2023/08/15 02:45:53;;;;;;;;;;;;;;;22.62;87.89;100953.88;4188805;28;20028;-70
2023/08/15 02:47:55;;;;;;;;;;;;;;;22.62;87.91;100960.19;4186312;28;20016;-69
2023/08/15 02:49:57;;;;;;;;;;;;;;;22.62;87.65;100953.88;4187505;28;20433;-69
2023/08/15 02:51:59;;;;;;;;;;;;;;;22.61;87.39;100958.53;4189353;28;20564;-69
2023/08/15 02:54:01;;;;;;;;;;;;;;;22.61;87.81;100955.78;4188993;28;20015;-69
2023/08/15 02:56:03;;;;;;;;;;;;;;;22.61;87.76;100957.69;4169833;28;20021;-69
2023/08/15 02:58:05;;;;;;;;;;;;;;;22.61;87.67;100965.97;4187478;28;19936;-69
2023/08/15 03:00:08;;;;;;;;;;;;;;;22.60;87.50;100962.38;4187631;28;20011;-69
2023/08/15 03:02:13;;;;;;;;;;;;;;;22.58;87.60;100964.53;4187965;28;20007;-69
2023/08/15 03:04:15;;;;;;;;;;;;;;;22.57;87.91;100971.13;4186743;28;20031;-69
2023/08/15 03:06:16;;;;;;;;;;;;;;;22.56;87.86;100968.63;4169410;28;20044;-69
2023/08/15 03:08:18;;;;;;;;;;;;;;;22.55;88.10;100973.28;4188769;28;19972;-71
2023/08/15 03:10:20;;;;;;;;;;;;;;;22.54;88.28;100971.66;4188293;28;20454;-70
2023/08/15 03:12:22;;;;;;;;;;;;;;;22.54;87.78;100974.41;4170326;28;20045;-69
2023/08/15 03:14:24;;;;;;;;;;;;;;;22.53;88.13;100985.66;4169224;28;20013;-69
2023/08/15 03:16:27;;;;;;;;;;;;;;;22.52;88.34;100993.06;4148685;28;20020;-70
2023/08/15 03:18:30;;;;;;;;;;;;;;;22.49;88.19;100999.06;4153236;28;20020;-71
2023/08/15 03:20:32;;;;;;;;;;;;;;;22.48;87.87;100995.50;4186344;28;20373;-70
2023/08/15 03:22:35;;;;;;;;;;;;;;;22.48;88.08;101000.16;4169519;28;20015;-69
2023/08/15 03:24:37;;;;;;;;;;;;;;;22.47;87.95;101004.81;4169552;28;20053;-69
2023/08/15 03:26:38;;;;;;;;;;;;;;;22.46;87.61;101005.91;4188479;28;20019;-69
2023/08/15 03:28:41;;;;;;;;;;;;;;;22.46;88.05;101005.06;4169582;28;20015;-69
2023/08/15 03:30:44;;;;;;;;;;;;;;;22.46;87.72;101013.31;4187840;28;20015;-69
2023/08/15 03:32:46;;;;;;;;;;;;;;;22.44;87.85;101013.56;4169303;28;20020;-69
2023/08/15 03:34:49;;;;;;;;;;;;;;;22.42;87.95;101021.25;4170070;28;20835;-69
2023/08/15 03:36:50;;;;;;;;;;;;;;;22.43;87.76;101019.31;4186733;28;20024;-69
2023/08/15 03:38:52;;;;;;;;;;;;;;;22.41;88.05;101018.75;4186631;28;19925;-69
2023/08/15 03:41:01;;;;;;;;;;;;;;;22.41;87.61;101029.75;4186524;28;20027;-69
2023/08/15 03:43:03;;;;;;;;;;;;;;;22.40;87.82;101033.59;4169142;28;20019;-69
2023/08/15 03:45:05;;;;;;;;;;;;;;;22.39;87.81;101037.44;4169527;28;20019;-69
2023/08/15 03:47:07;;;;;;;;;;;;;;;22.38;87.79;101038.50;4187135;28;20019;-69
2023/08/15 03:49:09;;;;;;;;;;;;;;;22.37;87.60;101043.19;4187850;28;20023;-69
2023/08/15 03:51:11;;;;;;;;;;;;;;;22.36;87.79;101043.44;4169149;28;20024;-69
2023/08/15 03:53:13;;;;;;;;;;;;;;;22.36;87.55;101047.00;4187090;28;20404;-70
2023/08/15 03:55:17;;;;;;;;;;;;;;;22.36;87.87;101040.69;4168440;28;20457;-69
2023/08/15 03:57:19;;;;;;;;;;;;;;;22.36;88.01;101049.75;4187030;28;20351;-69
2023/08/15 03:59:20;;;;;;;;;;;;;;;22.36;87.50;101044.25;4186936;28;19932;-69
2023/08/15 04:01:22;;;;;;;;;;;;;;;22.37;87.73;101047.88;4168665;28;20398;-69
2023/08/15 04:03:24;;;;;;;;;;;;;;;22.36;88.12;101048.94;4187622;28;20012;-69
2023/08/15 04:05:26;;;;;;;;;;;;;;;22.34;87.76;101043.69;4168934;28;20008;-69
2023/08/15 04:07:30;;;;;;;;;;;;;;;22.35;88.08;101061.00;4186269;28;20028;-69
2023/08/15 04:09:32;;;;;;;;;;;;;;;22.35;87.81;101063.78;4186454;28;20019;-69
2023/08/15 04:11:34;;;;;;;;;;;;;;;22.33;87.58;101066.78;4184367;28;20044;-69
2023/08/15 04:13:35;;;;;;;;;;;;;;;22.32;87.65;101070.63;4185493;28;20027;-69
2023/08/15 04:15:37;;;;;;;;;;;;;;;22.31;88.11;101075.28;4186243;28;20394;-69
2023/08/15 04:17:40;;;;;;;;;;;;;;;22.33;87.49;101076.94;4169160;28;20232;-69
2023/08/15 04:19:42;;;;;;;;;;;;;;;22.33;87.50;101076.94;4186850;28;19956;-69
2023/08/15 04:21:44;;;;;;;;;;;;;;;22.31;87.27;101080.78;4168754;28;20020;-69
2023/08/15 04:23:47;;;;;;;;;;;;;;;22.31;87.65;101082.69;4185623;28;20024;-69
2023/08/15 04:25:49;;;;;;;;;;;;;;;22.30;87.59;101076.38;4186835;28;20355;-69
2023/08/15 04:27:52;;;;;;;;;;;;;;;22.29;87.62;101084.84;4167380;28;20033;-69
2023/08/15 04:29:55;;;;;;;;;;;;;;;22.28;87.87;101086.72;4186072;28;20019;-69
2023/08/15 04:31:57;;;;;;;;;;;;;;;22.28;87.53;101085.91;4167942;28;20367;-69
2023/08/15 04:33:59;;;;;;;;;;;;;;;22.26;87.78;101083.41;4184751;28;20012;-69
2023/08/15 04:36:02;;;;;;;;;;;;;;;22.26;87.50;101085.34;4169466;28;20027;-69
2023/08/15 04:38:04;;;;;;;;;;;;;;;22.28;87.53;101094.16;4185672;28;20608;-69
2023/08/15 04:40:09;;;;;;;;;;;;;;;22.27;87.68;101085.09;4167904;28;19928;-69
2023/08/15 04:42:12;;;;;;;;;;;;;;;22.26;87.68;101085.34;4152154;28;20478;-69
2023/08/15 04:44:14;;;;;;;;;;;;;;;22.27;88.08;101084.22;4152925;28;20474;-69
2023/08/15 04:46:16;;;;;;;;;;;;;;;22.27;88.10;101087.84;4151765;28;20012;-69
2023/08/15 04:48:18;;;;;;;;;;;;;;;22.27;87.71;101087.84;4152531;28;20025;-69
2023/08/15 04:50:20;;;;;;;;;;;;;;;22.27;88.23;101090.59;4167374;28;20023;-69
2023/08/15 04:52:22;;;;;;;;;;;;;;;22.27;88.00;101092.47;4186694;28;20465;-69
2023/08/15 04:54:24;;;;;;;;;;;;;;;22.26;87.91;101086.16;4167153;28;20011;-69
2023/08/15 04:56:27;;;;;;;;;;;;;;;22.26;87.84;101088.91;4168071;28;20111;-69
2023/08/15 04:58:29;;;;;;;;;;;;;;;22.26;87.99;101091.66;4151623;28;20016;-70
2023/08/15 05:00:31;;;;;;;;;;;;;;;22.27;88.10;101103.50;4152551;28;19936;-69
2023/08/15 05:02:34;;;;;;;;;;;;;;;22.27;88.39;101100.75;4167864;28;20028;-69
2023/08/15 05:04:35;;;;;;;;;;;;;;;22.26;88.40;101096.34;4184151;28;20015;-69
2023/08/15 05:06:38;;;;;;;;;;;;;;;22.26;88.23;101101.84;4167012;28;20342;-70
2023/08/15 05:08:40;;;;;;;;;;;;;;;22.25;88.70;101092.72;4167509;28;20858;-70
2023/08/15 05:10:42;;;;;;;;;;;;;;;22.25;88.47;101091.91;4166920;28;20391;-70
2023/08/15 05:12:46;;;;;;;;;;;;;;;22.25;88.89;101094.66;4184937;28;20368;-70
2023/08/15 05:14:48;;;;;;;;;;;;;;;22.23;89.12;101089.41;4166709;28;20016;-71
2023/08/15 05:16:51;;;;;;;;;;;;;;;22.22;89.21;101093.22;4185572;28;20716;-71
2023/08/15 05:18:52;;;;;;;;;;;;;;;22.22;88.76;101093.22;4166736;28;20023;-69
2023/08/15 05:20:54;;;;;;;;;;;;;;;22.23;89.37;101094.06;4185997;28;20423;-70
2023/08/15 05:22:57;;;;;;;;;;;;;;;22.24;88.65;101101.22;4185172;28;20027;-71
2023/08/15 05:24:58;;;;;;;;;;;;;;;22.24;88.48;101102.09;4168064;28;20024;-70
2023/08/15 05:27:00;;;;;;;;;;;;;;;22.26;88.51;101097.16;4169050;28;20020;-71
2023/08/15 05:29:04;;;;;;;;;;;;;;;22.27;88.41;101100.75;4170206;28;19971;-70
2023/08/15 05:31:06;;;;;;;;;;;;;;;22.27;88.70;101109.84;4188896;28;20032;-70
2023/08/15 05:33:08;;;;;;;;;;;;;;;22.27;88.91;101104.34;4187971;28;20019;-71
2023/08/15 05:35:11;;;;;;;;;;;;;;;22.28;88.83;101117.00;4171552;28;20506;-70
2023/08/15 05:37:13;;;;;;;;;;;;;;;22.27;88.86;101109.00;4167204;28;20019;-70
2023/08/15 05:39:16;;;;;;;;;;;;;;;22.28;89.25;101114.25;4170659;28;20020;-70
2023/08/15 05:41:18;;;;;;;;;;;;;;;22.28;89.83;101107.91;4186961;28;19925;-70
2023/08/15 05:43:20;;;;;;;;;;;;;;;22.27;89.36;101107.09;4188032;28;20023;-69
2023/08/15 05:45:23;;;;;;;;;;;;;;;22.27;89.31;101109.00;4188433;28;20019;-69
2023/08/15 05:47:25;;;;;;;;;;;;;;;22.28;89.66;101105.16;4186554;28;20047;-69
2023/08/15 05:49:27;;;;;;;;;;;;;;;22.29;89.47;101096.66;4186832;28;20015;-70
2023/08/15 05:51:29;;;;;;;;;;;;;;;22.29;90.05;101095.84;4187166;28;20019;-70
2023/08/15 05:53:31;;;;;;;;;;;;;;;22.31;89.54;101099.22;4187722;28;20063;-70
2023/08/15 05:55:33;;;;;;;;;;;;;;;22.31;89.30;101111.03;4169031;28;20108;-69
2023/08/15 05:57:37;;;;;;;;;;;;;;;22.34;89.96;101106.97;4189429;28;20031;-71
2023/08/15 05:59:39;;;;;;;;;;;;;;;22.35;90.14;101107.78;4189232;28;20482;-70
2023/08/15 06:01:42;;;;;;;;;;;;;;;22.33;90.75;101113.53;4187705;28;20044;-71
2023/08/15 06:03:44;;;;;;;;;;;;;;;22.34;90.49;101111.66;4189382;28;20011;-69
2023/08/15 06:05:46;;;;;;;;;;;;;;;22.33;90.94;101121.78;4188740;28;20369;-69
2023/08/15 06:07:48;;;;;;;;;;;;;;;22.35;90.76;101121.56;4188922;28;20370;-70
2023/08/15 06:09:50;;;;;;;;;;;;;;;22.35;90.34;101122.41;4189036;28;20455;-69
2023/08/15 06:11:52;;;;;;;;;;;;;;;22.35;90.42;101116.06;4187678;28;20019;-69
2023/08/15 06:13:54;;;;;;;;;;;;;;;22.35;89.81;101110.53;4187666;28;20016;-69
2023/08/15 06:15:56;;;;;;;;;;;;;;;22.37;91.12;101108.41;4185956;28;20059;-69
2023/08/15 06:17:59;;;;;;;;;;;;;;;22.38;89.69;101107.31;4188130;28;20020;-69
2023/08/15 06:20:01;;;;;;;;;;;;;;;22.41;90.90;101115.88;4187057;28;20012;-69
2023/08/15 06:22:03;;;;;;;;;;;;;;;22.42;89.86;101092.81;4188315;28;19926;-69
2023/08/15 06:24:06;;;;;;;;;;;;;;;22.45;90.34;101102.50;4189116;28;20023;-69
2023/08/15 06:26:08;;;;;;;;;;;;;;;22.47;90.63;101106.66;4187835;28;20023;-69
2023/08/15 06:28:10;;;;;;;;;;;;;;;22.47;90.01;101098.38;4188096;28;20020;-69
2023/08/15 06:30:12;;;;;;;;;;;;;;;22.51;89.64;101098.75;4188145;28;20047;-69
2023/08/15 06:32:24;;;;;;;;;;;;;;;22.53;90.20;101098.50;4188975;28;20015;-69
2023/08/15 06:34:28;;;;;;;;;;;;;;;22.54;89.71;101097.41;4188641;28;20027;-69
2023/08/15 06:36:30;;;;;;;;;;;;;;;22.56;90.17;101100.75;4186589;28;20443;-70
2023/08/15 06:38:32;;;;;;;;;;;;;;;22.57;90.05;101092.25;4185119;28;20028;-70
2023/08/15 06:40:34;;;;;;;;;;;;;;;22.59;90.08;101095.59;4185017;28;20035;-69
2023/08/15 06:42:36;;;;;;;;;;;;;;;22.61;89.19;101095.34;4185473;28;19928;-69
2023/08/15 06:44:38;;;;;;;;;;;;;;;22.64;89.62;101094.84;4186241;28;20020;-69
2023/08/15 06:46:40;;;;;;;;;;;;;;;22.67;90.19;101088.84;4187919;28;20024;-69
2023/08/15 06:48:42;;;;;;;;;;;;;;;22.68;89.41;101093.25;4186673;28;20024;-68
2023/08/15 06:50:45;;;;;;;;;;;;;;;22.70;89.29;101107.59;4188503;28;20016;-68
2023/08/15 06:52:46;;;;;;;;;;;;;;;22.71;89.21;101112.03;4188243;28;20019;-69
2023/08/15 06:54:48;;;;;;;;;;;;;;;22.72;89.41;101121.13;4169935;28;19980;-68
2023/08/15 06:56:50;;;;;;;;;;;;;;;22.73;89.22;101118.13;4188528;28;20437;-69
2023/08/15 06:58:52;;;;;;;;;;;;;;;22.74;89.39;101125.28;4188628;28;20015;-69
2023/08/15 07:00:55;;;;;;;;;;;;;;;22.75;89.05;101118.69;4187954;28;20032;-68
2023/08/15 07:02:57;;;;;;;;;;;;;;;22.78;88.31;101120.94;4188533;28;19971;-70
2023/08/15 07:04:58;;;;;;;;;;;;;;;22.80;87.98;101118.78;4188507;28;20019;-68
2023/08/15 07:07:02;;;;;;;;;;;;;;;22.83;87.62;101103.69;4187250;28;20019;-68
2023/08/15 07:09:06;;;;;;;;;;;;;;;22.86;87.04;101100.44;4187285;28;20027;-69
2023/08/15 07:11:08;;;;;;;;;;;;;;;22.88;86.77;101106.50;4187599;28;20016;-69
2023/08/15 07:13:11;;;;;;;;;;;;;;;22.91;86.69;101106.00;4188178;28;20020;-69
2023/08/15 07:15:13;;;;;;;;;;;;;;;22.94;86.39;101121.22;4188585;28;20023;-68
2023/08/15 07:17:15;;;;;;;;;;;;;;;22.96;86.45;101105.25;4185916;28;20030;-69
2023/08/15 07:19:17;;;;;;;;;;;;;;;22.97;86.46;101096.75;4187496;28;20023;-70
2023/08/15 07:21:19;;;;;;;;;;;;;;;22.98;86.01;101098.41;4188044;28;20032;-69
2023/08/15 07:23:22;;;;;;;;;;;;;;;23.00;85.68;101099.00;4187966;28;20063;-69
2023/08/15 07:25:24;;;;;;;;;;;;;;;23.02;85.35;101099.59;4186518;28;20015;-69
2023/08/15 07:27:26;;;;;;;;;;;;;;;23.06;84.76;101102.69;4187653;28;20020;-69
2023/08/15 07:29:28;;;;;;;;;;;;;;;23.08;84.75;101108.78;4187041;28;20031;-69
2023/08/15 07:31:30;;;;;;;;;;;;;;;23.10;84.73;101097.53;4188084;28;20041;-69
2023/08/15 07:33:32;;;;;;;;;;;;;;;23.12;84.76;101089.81;4187714;28;20451;-69
2023/08/15 07:35:35;;;;;;;;;;;;;;;23.13;84.47;101083.25;4169498;28;20012;-69
2023/08/15 07:37:36;;;;;;;;;;;;;;;23.15;83.85;101092.94;4187646;28;20366;-69
2023/08/15 07:39:40;;;;;;;;;;;;;;;23.18;84.30;101081.41;4187875;28;20016;-69
2023/08/15 07:41:42;;;;;;;;;;;;;;;23.20;84.26;101083.91;4187492;28;20116;-68
2023/08/15 07:43:44;;;;;;;;;;;;;;;23.22;83.79;101098.25;4187677;28;19925;-68
2023/08/15 07:45:46;;;;;;;;;;;;;;;23.25;83.65;101110.72;4187537;28;20012;-69
2023/08/15 07:47:51;;;;;;;;;;;;;;;23.25;83.93;101108.78;4187916;28;20019;-70
2023/08/15 07:50:11;;;;;;;;;;;;;;;23.27;83.74;101106.59;4186407;28;20450;-69
2023/08/15 07:52:13;;;;;;;;;;;;;;;23.31;83.71;101109.69;4187623;28;20032;-69
2023/08/15 07:54:16;;;;;;;;;;;;;;;23.31;83.59;101102.25;4186655;28;20022;-69
2023/08/15 07:56:19;;;;;;;;;;;;;;;23.34;83.55;101100.91;4187388;28;20040;-69
2023/08/15 07:58:21;;;;;;;;;;;;;;;23.36;83.59;101104.25;4187026;28;20051;-69
2023/08/15 08:00:23;;;;;;;;;;;;;;;23.38;83.67;101102.88;4186671;28;20087;-69
2023/08/15 08:02:24;;;;;;;;;;;;;;;23.41;83.65;101106.25;4186279;28;20365;-69
2023/08/15 08:04:26;;;;;;;;;;;;;;;23.42;83.24;101108.75;4169912;28;19925;-69
2023/08/15 08:06:28;;;;;;;;;;;;;;;23.44;83.32;101106.56;4186830;28;20036;-68
2023/08/15 08:08:30;;;;;;;;;;;;;;;23.46;83.11;101107.13;4187491;28;20043;-69
2023/08/15 08:10:32;;;;;;;;;;;;;;;23.48;83.41;101104.97;4186743;28;20477;-70
2023/08/15 08:12:36;;;;;;;;;;;;;;;23.50;83.46;101107.47;4186678;28;20012;-69
2023/08/15 08:14:38;;;;;;;;;;;;;;;23.53;82.99;101112.47;4187049;28;20024;-69
2023/08/15 08:16:41;;;;;;;;;;;;;;;23.54;83.15;101115.00;4186847;28;20039;-69
2023/08/15 08:18:43;;;;;;;;;;;;;;;23.56;83.08;101118.31;4151955;28;20019;-69
2023/08/15 08:20:45;;;;;;;;;;;;;;;23.57;83.13;101110.88;4187003;28;20015;-70
2023/08/15 08:22:47;;;;;;;;;;;;;;;23.60;83.10;101106.78;4186149;28;20019;-70
2023/08/15 08:24:50;;;;;;;;;;;;;;;23.61;82.57;101111.22;4187290;28;20398;-69
2023/08/15 08:26:52;;;;;;;;;;;;;;;23.62;82.61;101107.34;4185578;28;20011;-69
2023/08/15 08:28:55;;;;;;;;;;;;;;;23.64;82.75;101111.53;4186973;28;20019;-69
2023/08/15 08:30:58;;;;;;;;;;;;;;;23.66;82.01;101112.09;4186865;28;20007;-69
2023/08/15 08:33:00;;;;;;;;;;;;;;;23.68;82.34;101114.59;4187013;28;19998;-68
2023/08/15 08:35:03;;;;;;;;;;;;;;;23.69;82.03;101128.13;4185829;28;20047;-69
2023/08/15 08:37:05;;;;;;;;;;;;;;;23.71;81.76;101125.94;4186487;28;20035;-69
2023/08/15 08:39:07;;;;;;;;;;;;;;;23.73;81.78;101122.94;4187158;28;20044;-69
2023/08/15 08:41:11;;;;;;;;;;;;;;;23.74;81.91;101125.44;4186903;28;20027;-70
2023/08/15 08:43:13;;;;;;;;;;;;;;;23.77;81.69;101140.63;4186445;28;20007;-69
2023/08/15 08:45:16;;;;;;;;;;;;;;;23.79;81.81;101138.44;4186718;28;19947;-69
2023/08/15 08:47:18;;;;;;;;;;;;;;;23.81;81.82;101141.81;4187228;28;20442;-69
2023/08/15 08:49:20;;;;;;;;;;;;;;;23.83;81.81;101134.09;4186639;28;20023;-69
2023/08/15 08:51:22;;;;;;;;;;;;;;;23.85;81.19;101139.41;4186149;28;20027;-69
2023/08/15 08:53:24;;;;;;;;;;;;;;;23.87;81.46;101134.44;4186814;28;20015;-69
2023/08/15 08:55:26;;;;;;;;;;;;;;;23.89;81.32;101152.41;4186273;28;20418;-69
2023/08/15 08:57:29;;;;;;;;;;;;;;;23.91;81.51;101150.22;4186678;28;20020;-69
2023/08/15 08:59:32;;;;;;;;;;;;;;;23.95;81.19;101146.94;4186427;28;20035;-68
2023/08/15 09:01:35;;;;;;;;;;;;;;;23.98;81.59;101140.94;4185887;28;20015;-70
2023/08/15 09:03:37;;;;;;;;;;;;;;;24.00;81.43;101147.03;4187051;28;20016;-68
2023/08/15 09:05:40;;;;;;;;;;;;;;;24.02;81.08;101148.44;4186819;28;19971;-70
2023/08/15 09:07:43;;;;;;;;;;;;;;;24.06;81.07;101149.59;4170476;28;20015;-68
2023/08/15 09:09:45;;;;;;;;;;;;;;;24.09;80.59;101145.47;4169674;28;20032;-68
2023/08/15 09:11:47;;;;;;;;;;;;;;;24.10;80.60;101150.72;4170281;28;20016;-69
2023/08/15 09:13:49;;;;;;;;;;;;;;;24.13;80.68;101148.56;4169324;28;20020;-68
2023/08/15 09:15:55;;;;;;;;;;;;;;;24.15;80.72;101151.91;4170247;28;20015;-68
2023/08/15 09:17:59;;;;;;;;;;;;;;;24.18;80.57;101151.38;4170374;28;20023;-68
2023/08/15 09:20:09;;;;;;;;;;;;;;;24.22;80.52;101147.03;4169431;28;20032;-68
2023/08/15 09:22:11;;;;;;;;;;;;;;;24.24;80.75;101137.38;4169746;28;20019;-69
2023/08/15 09:24:13;;;;;;;;;;;;;;;24.27;80.34;101145.13;4152471;28;20025;-68
2023/08/15 09:26:16;;;;;;;;;;;;;;;24.28;80.85;101149.56;4170033;28;20358;-68
2023/08/15 09:28:21;;;;;;;;;;;;;;;24.31;80.90;101145.47;4169089;28;20302;-70
2023/08/15 09:30:23;;;;;;;;;;;;;;;24.34;80.41;101147.72;4168958;28;20015;-69
2023/08/15 09:32:24;;;;;;;;;;;;;;;24.36;80.51;101153.78;4168135;28;20019;-69
2023/08/15 09:34:27;;;;;;;;;;;;;;;24.39;80.35;101153.28;4170276;28;19936;-69
2023/08/15 09:36:29;;;;;;;;;;;;;;;24.42;79.46;101146.38;4169622;28;20399;-69
2023/08/15 09:38:31;;;;;;;;;;;;;;;24.45;80.06;101134.81;4169207;28;20008;-70
2023/08/15 09:40:33;;;;;;;;;;;;;;;24.47;80.59;101129.91;4169447;28;20024;-68
2023/08/15 09:42:35;;;;;;;;;;;;;;;24.49;80.42;101133.22;4169521;28;20023;-69
2023/08/15 09:44:38;;;;;;;;;;;;;;;24.50;80.15;101129.38;4169428;28;20036;-69
2023/08/15 09:46:40;;;;;;;;;;;;;;;24.54;80.16;101137.97;4169221;28;20396;-69
2023/08/15 09:48:43;;;;;;;;;;;;;;;24.56;80.22;101147.66;4169911;28;20008;-69
2023/08/15 09:50:46;;;;;;;;;;;;;;;24.58;80.57;101152.94;4169251;28;19960;-69
2023/08/15 09:52:48;;;;;;;;;;;;;;;24.60;80.25;101148.00;4167852;28;20007;-69
2023/08/15 09:54:50;;;;;;;;;;;;;;;24.62;79.78;101143.03;4169363;28;20299;-69
2023/08/15 09:56:55;;;;;;;;;;;;;;;24.67;79.28;101153.28;4169541;28;20366;-69
2023/08/15 09:58:58;;;;;;;;;;;;;;;24.71;78.02;101137.88;4169843;28;20020;-69
2023/08/15 10:00:59;;;;;;;;;;;;;;;24.75;79.21;101134.34;4168651;28;20032;-70
2023/08/15 10:03:02;;;;;;;;;;;;;;;24.77;79.28;101134.91;4169916;28;19928;-68
2023/08/15 10:05:06;;;;;;;;;;;;;;;24.80;78.45;101136.31;4169572;28;20019;-68
2023/08/15 10:07:09;;;;;;;;;;;;;;;24.82;78.47;101126.63;4181353;28;19975;-70
2023/08/15 10:09:11;;;;;;;;;;;;;;;24.85;78.63;101135.53;4185209;28;20019;-69
2023/08/15 10:11:13;;;;;;;;;;;;;;;24.86;78.59;101115.91;4185009;28;20012;-70
2023/08/15 10:13:15;;;;;;;;;;;;;;;24.86;79.21;101115.91;4188011;28;20007;-69
2023/08/15 10:15:17;;;;;;;;;;;;;;;24.87;78.89;101116.75;4189335;28;20019;-69
2023/08/15 10:17:27;;;;;;;;;;;;;;;24.88;79.32;101115.66;4187904;28;19933;-71
2023/08/15 10:19:30;;;;;;;;;;;;;;;24.89;79.58;101109.00;4188340;28;20782;-69
2023/08/15 10:21:49;;;;;;;;;;;;;;;24.88;78.99;101108.19;4189376;28;20018;-68
2023/08/15 10:23:54;;;;;;;;;;;;;;;24.90;79.54;101105.16;4188623;28;20015;-69
2023/08/15 10:25:57;;;;;;;;;;;;;;;24.91;79.31;101112.38;4187244;28;20035;-68
2023/08/15 10:27:58;;;;;;;;;;;;;;;24.92;79.08;101103.81;4188849;28;20822;-68